Austin, TX (78727)

7:00 AM CDT on September 18, 2014 (GMT -0500)
Hidden Estates | Change Station
CLOSE
Current Station
Personal Weather Station
Location: Austin, TX
Elevation: 791 ft
Nearby Weather Stations
Active Advisory: Flash Flood Warning, Flash Flood Watch Active Notice: Local Storm Report

Elev 791 ft 30.43 °N, 97.71 °W | Updated 47 seconds ago

Overcast
Overcast
73.3 °F
Feels Like 73.3 °F
N
3.0
Wind Variable Wind from NE
Gusts 3.0 mph

Today
High -- | Low -- °F
--% Chance of Precip.
Yesterday
High -- | Low -- °F
Precip. -- in
7:16 AM 7:32 PM
Waning Crescent, 27% visible
Pressure 29.85 in
Visibility 7.0 miles
Clouds Few 300 ft
Scattered Clouds 6500 ft
Dew Point 72 °F
Humidity 97%
Rainfall 2.02 in
Snow Depth Not available.
UV 0 out of 12
Pollen 2.70 out of 12
Ozone Good
PM2.5 Good
Flu Activity Not available.
METAR KATT 181151Z AUTO 00000KT 7SM FEW003 SCT065 22/22 A2988 RMK AO2 RAE23 SLP106 P0004 60349 70382 T02220222 10244 20222 53011 $

More Conditions Fewer Conditions

Pressure 29.85 in
Visibility 7.0 miles
Clouds Few 300 ft
Scattered Clouds 6500 ft
Dew Point 72 °F
Humidity 97%
Rainfall 2.02 in
Snow Depth Not available.
UV 0 out of 12
Pollen 2.70 out of 12
Ozone Good
PM2.5 Good
Flu Activity Not available.
METAR KATT 181151Z AUTO 00000KT 7SM FEW003 SCT065 22/22 A2988 RMK AO2 RAE23 SLP106 P0004 60349 70382 T02220222 10244 20222 53011 $

More Conditions Fewer Conditions

10-Day Weather Forecast

Almanac

Astronomy

Sep. 18, 2014 Rise Set
Actual Time 7:16 AM CDT 7:32 PM CDT
Civil Twilight 6:52 AM CDT 7:56 PM CDT
Nautical Twilight 6:24 AM CDT 8:24 PM CDT
Astronomical Twilight 5:56 AM CDT 8:52 PM CDT
Moon 2:26 AM CDT 4:09 PM CDT
Length of Visible Light 13h 03m
Length of Day
12h 15m
Tomorrow will be 1m 50s shorter.
Waning Crescent, 27% of the Moon is Illuminated
Today
Waning Crescent
Sep 24
New
Oct 1
First Quarter
Oct 8
Full
Oct 15
Last Quarter

Today's Extremes

State Highs State Lows

Community

WunderPhotos

Upload Photos

1,754,330 photos uploaded!

Nearby

Air Quality

  Air Quality AQ Index Pollutant
Yesterday Good
OZONE
Yesterday Good
PM2.5
Current Good
OZONE
Current Good
PM2.5
Thursday Good
OZONE
Thursday Good
PM10
Friday Good
OZONE
Friday Good
PM10
Saturday Good
OZONE
Saturday Good
PM10

Snow Depth

Station Depth Elevation
No new snow has been reported.

Earthquake Activity

City Distance Mag. Time & Date
No recent earthquake activity has been reported nearby.
Minimum magnitude displayed is 2.5.

Coastal Water Temperatures

Place Temperature
No Stations Reporting

Nearby Weather Stations